sensor_id;sensor_type;location;lat;lon;timestamp;temperature;humidity
35692;DHT22;26978;44.830;-0.674;2022-08-21T00:00:09;19.80;99.90
35692;DHT22;26978;44.830;-0.674;2022-08-21T00:02:36;19.80;99.90
35692;DHT22;26978;44.830;-0.674;2022-08-21T00:05:02;19.90;99.90
35692;DHT22;26978;44.830;-0.674;2022-08-21T00:07:27;19.80;99.90
35692;DHT22;26978;44.830;-0.674;2022-08-21T00:09:53;19.80;99.90
35692;DHT22;26978;44.830;-0.674;2022-08-21T00:12:19;19.90;99.90
35692;DHT22;26978;44.830;-0.674;2022-08-21T00:14:45;19.80;99.90
35692;DHT22;26978;44.830;-0.674;2022-08-21T00:17:10;19.80;99.90
35692;DHT22;26978;44.830;-0.674;2022-08-21T00:19:36;19.80;99.90
35692;DHT22;26978;44.830;-0.674;2022-08-21T00:22:01;19.80;99.90
35692;DHT22;26978;44.830;-0.674;2022-08-21T00:24:27;19.80;99.90
35692;DHT22;26978;44.830;-0.674;2022-08-21T00:26:52;19.80;99.90
35692;DHT22;26978;44.830;-0.674;2022-08-21T00:29:18;19.70;99.90
35692;DHT22;26978;44.830;-0.674;2022-08-21T00:31:44;19.80;99.90
35692;DHT22;26978;44.830;-0.674;2022-08-21T00:34:10;19.70;99.90
35692;DHT22;26978;44.830;-0.674;2022-08-21T00:36:35;19.70;99.90
35692;DHT22;26978;44.830;-0.674;2022-08-21T00:39:02;19.60;99.90
35692;DHT22;26978;44.830;-0.674;2022-08-21T00:41:28;19.60;99.90
35692;DHT22;26978;44.830;-0.674;2022-08-21T00:43:54;19.60;99.90
35692;DHT22;26978;44.830;-0.674;2022-08-21T00:46:20;19.60;99.90
35692;DHT22;26978;44.830;-0.674;2022-08-21T00:48:45;19.70;99.90
35692;DHT22;26978;44.830;-0.674;2022-08-21T00:51:18;19.60;99.90
35692;DHT22;26978;44.830;-0.674;2022-08-21T00:53:51;19.60;99.90
35692;DHT22;26978;44.830;-0.674;2022-08-21T00:56:18;19.50;99.90
35692;DHT22;26978;44.830;-0.674;2022-08-21T00:58:44;19.50;99.90
35692;DHT22;26978;44.830;-0.674;2022-08-21T01:01:10;19.60;99.90
35692;DHT22;26978;44.830;-0.674;2022-08-21T01:03:36;19.50;99.90
35692;DHT22;26978;44.830;-0.674;2022-08-21T01:06:02;19.50;99.90
35692;DHT22;26978;44.830;-0.674;2022-08-21T01:08:29;19.50;99.90
35692;DHT22;26978;44.830;-0.674;2022-08-21T01:10:55;19.40;99.90
35692;DHT22;26978;44.830;-0.674;2022-08-21T01:13:22;19.50;99.90
35692;DHT22;26978;44.830;-0.674;2022-08-21T01:15:49;19.50;99.90
35692;DHT22;26978;44.830;-0.674;2022-08-21T01:18:17;19.40;99.90
35692;DHT22;26978;44.830;-0.674;2022-08-21T01:20:45;19.40;99.90
35692;DHT22;26978;44.830;-0.674;2022-08-21T01:23:11;19.40;99.90
35692;DHT22;26978;44.830;-0.674;2022-08-21T01:25:37;19.40;99.90
35692;DHT22;26978;44.830;-0.674;2022-08-21T01:28:09;19.30;99.90
35692;DHT22;26978;44.830;-0.674;2022-08-21T01:30:36;19.20;99.90
35692;DHT22;26978;44.830;-0.674;2022-08-21T01:33:03;19.20;99.90
35692;DHT22;26978;44.830;-0.674;2022-08-21T01:35:28;19.10;99.90
35692;DHT22;26978;44.830;-0.674;2022-08-21T01:37:54;19.10;99.90
35692;DHT22;26978;44.830;-0.674;2022-08-21T01:40:20;19.00;99.90
35692;DHT22;26978;44.830;-0.674;2022-08-21T01:42:47;19.00;99.90
35692;DHT22;26978;44.830;-0.674;2022-08-21T01:45:12;18.90;99.90
35692;DHT22;26978;44.830;-0.674;2022-08-21T01:47:38;18.80;99.90
35692;DHT22;26978;44.830;-0.674;2022-08-21T01:50:05;18.80;99.90
35692;DHT22;26978;44.830;-0.674;2022-08-21T01:52:31;18.90;99.90
35692;DHT22;26978;44.830;-0.674;2022-08-21T01:54:57;18.80;99.90
35692;DHT22;26978;44.830;-0.674;2022-08-21T01:57:22;18.70;99.90
35692;DHT22;26978;44.830;-0.674;2022-08-21T01:59:48;18.70;99.90
35692;DHT22;26978;44.830;-0.674;2022-08-21T02:02:14;18.60;99.90
35692;DHT22;26978;44.830;-0.674;2022-08-21T02:04:39;18.70;99.90
35692;DHT22;26978;44.830;-0.674;2022-08-21T02:07:05;18.60;99.90
35692;DHT22;26978;44.830;-0.674;2022-08-21T02:09:30;18.50;99.90
35692;DHT22;26978;44.830;-0.674;2022-08-21T02:11:56;18.50;99.90
35692;DHT22;26978;44.830;-0.674;2022-08-21T02:14:21;18.50;99.90
35692;DHT22;26978;44.830;-0.674;2022-08-21T02:16:47;18.50;99.90
35692;DHT22;26978;44.830;-0.674;2022-08-21T02:19:14;18.40;99.90
35692;DHT22;26978;44.830;-0.674;2022-08-21T02:21:39;18.40;99.90
35692;DHT22;26978;44.830;-0.674;2022-08-21T02:24:05;18.30;99.90
35692;DHT22;26978;44.830;-0.674;2022-08-21T02:26:31;18.30;99.90
35692;DHT22;26978;44.830;-0.674;2022-08-21T02:28:56;18.20;99.90
35692;DHT22;26978;44.830;-0.674;2022-08-21T02:31:22;18.20;99.90
35692;DHT22;26978;44.830;-0.674;2022-08-21T02:33:48;18.20;99.90
35692;DHT22;26978;44.830;-0.674;2022-08-21T02:36:13;18.10;99.90
35692;DHT22;26978;44.830;-0.674;2022-08-21T02:38:40;18.10;99.90
35692;DHT22;26978;44.830;-0.674;2022-08-21T02:41:07;18.10;99.90
35692;DHT22;26978;44.830;-0.674;2022-08-21T02:43:32;18.10;99.90
35692;DHT22;26978;44.830;-0.674;2022-08-21T02:45:58;18.00;99.90
35692;DHT22;26978;44.830;-0.674;2022-08-21T02:48:25;18.00;99.90
35692;DHT22;26978;44.830;-0.674;2022-08-21T02:50:54;18.00;99.90
35692;DHT22;26978;44.830;-0.674;2022-08-21T02:53:20;18.00;99.90
35692;DHT22;26978;44.830;-0.674;2022-08-21T02:55:47;18.00;99.90
35692;DHT22;26978;44.830;-0.674;2022-08-21T02:58:13;18.00;99.90
35692;DHT22;26978;44.830;-0.674;2022-08-21T03:00:39;18.00;99.90
35692;DHT22;26978;44.830;-0.674;2022-08-21T03:03:05;18.00;99.90
35692;DHT22;26978;44.830;-0.674;2022-08-21T03:05:31;18.10;99.90
35692;DHT22;26978;44.830;-0.674;2022-08-21T03:07:57;18.10;99.90
35692;DHT22;26978;44.830;-0.674;2022-08-21T03:10:24;18.10;99.90
35692;DHT22;26978;44.830;-0.674;2022-08-21T03:12:50;18.10;99.90
35692;DHT22;26978;44.830;-0.674;2022-08-21T03:15:17;18.10;99.90
35692;DHT22;26978;44.830;-0.674;2022-08-21T03:17:43;18.10;99.90
35692;DHT22;26978;44.830;-0.674;2022-08-21T03:20:09;18.00;99.90
35692;DHT22;26978;44.830;-0.674;2022-08-21T03:22:34;18.00;99.90
35692;DHT22;26978;44.830;-0.674;2022-08-21T03:25:00;18.00;99.90
35692;DHT22;26978;44.830;-0.674;2022-08-21T03:27:27;17.90;99.90
35692;DHT22;26978;44.830;-0.674;2022-08-21T03:29:53;17.90;99.90
35692;DHT22;26978;44.830;-0.674;2022-08-21T03:32:19;17.80;99.90
35692;DHT22;26978;44.830;-0.674;2022-08-21T03:34:45;17.80;99.90
35692;DHT22;26978;44.830;-0.674;2022-08-21T03:37:11;17.80;99.90
35692;DHT22;26978;44.830;-0.674;2022-08-21T03:39:37;17.90;99.90
35692;DHT22;26978;44.830;-0.674;2022-08-21T03:42:02;17.80;99.90
35692;DHT22;26978;44.830;-0.674;2022-08-21T03:44:28;17.80;99.90
35692;DHT22;26978;44.830;-0.674;2022-08-21T03:46:54;17.70;99.90
35692;DHT22;26978;44.830;-0.674;2022-08-21T03:49:20;17.60;99.90
35692;DHT22;26978;44.830;-0.674;2022-08-21T03:51:46;17.60;99.90
35692;DHT22;26978;44.830;-0.674;2022-08-21T03:54:11;17.70;99.90
35692;DHT22;26978;44.830;-0.674;2022-08-21T03:56:37;17.60;99.90
35692;DHT22;26978;44.830;-0.674;2022-08-21T03:59:04;17.50;99.90
35692;DHT22;26978;44.830;-0.674;2022-08-21T04:01:30;17.60;99.90
35692;DHT22;26978;44.830;-0.674;2022-08-21T04:03:56;17.50;99.90
35692;DHT22;26978;44.830;-0.674;2022-08-21T04:06:21;17.50;99.90
35692;DHT22;26978;44.830;-0.674;2022-08-21T04:08:47;17.50;99.90
35692;DHT22;26978;44.830;-0.674;2022-08-21T04:11:12;17.50;99.90
35692;DHT22;26978;44.830;-0.674;2022-08-21T04:13:38;17.60;99.90
35692;DHT22;26978;44.830;-0.674;2022-08-21T04:16:04;17.60;99.90
35692;DHT22;26978;44.830;-0.674;2022-08-21T04:18:29;17.60;99.90
35692;DHT22;26978;44.830;-0.674;2022-08-21T04:20:55;17.50;99.90
35692;DHT22;26978;44.830;-0.674;2022-08-21T04:23:22;17.50;99.90
35692;DHT22;26978;44.830;-0.674;2022-08-21T04:25:48;17.50;99.90
35692;DHT22;26978;44.830;-0.674;2022-08-21T04:28:13;17.50;99.90
35692;DHT22;26978;44.830;-0.674;2022-08-21T04:30:39;17.50;99.90
35692;DHT22;26978;44.830;-0.674;2022-08-21T04:33:05;17.50;99.90
35692;DHT22;26978;44.830;-0.674;2022-08-21T04:35:32;17.40;99.90
35692;DHT22;26978;44.830;-0.674;2022-08-21T04:37:58;17.40;99.90
35692;DHT22;26978;44.830;-0.674;2022-08-21T04:40:24;17.40;99.90
35692;DHT22;26978;44.830;-0.674;2022-08-21T04:42:53;17.30;99.90
35692;DHT22;26978;44.830;-0.674;2022-08-21T04:45:24;17.30;99.90
35692;DHT22;26978;44.830;-0.674;2022-08-21T04:47:50;17.30;99.90
35692;DHT22;26978;44.830;-0.674;2022-08-21T04:50:16;17.40;99.90
35692;DHT22;26978;44.830;-0.674;2022-08-21T04:52:42;17.40;99.90
35692;DHT22;26978;44.830;-0.674;2022-08-21T04:55:08;17.50;99.90
35692;DHT22;26978;44.830;-0.674;2022-08-21T04:57:34;17.40;99.90
35692;DHT22;26978;44.830;-0.674;2022-08-21T05:00:01;17.30;99.90
35692;DHT22;26978;44.830;-0.674;2022-08-21T05:02:28;17.30;99.90
35692;DHT22;26978;44.830;-0.674;2022-08-21T05:04:53;17.30;99.90
35692;DHT22;26978;44.830;-0.674;2022-08-21T05:07:23;17.20;99.90
35692;DHT22;26978;44.830;-0.674;2022-08-21T05:09:50;17.20;99.90
35692;DHT22;26978;44.830;-0.674;2022-08-21T05:12:15;17.30;99.90
35692;DHT22;26978;44.830;-0.674;2022-08-21T05:14:42;17.30;99.90
35692;DHT22;26978;44.830;-0.674;2022-08-21T05:17:08;17.20;99.90
35692;DHT22;26978;44.830;-0.674;2022-08-21T05:19:34;17.20;99.90
35692;DHT22;26978;44.830;-0.674;2022-08-21T05:21:59;17.20;99.90
35692;DHT22;26978;44.830;-0.674;2022-08-21T05:24:26;17.30;99.90
35692;DHT22;26978;44.830;-0.674;2022-08-21T05:26:52;17.30;99.90
35692;DHT22;26978;44.830;-0.674;2022-08-21T05:29:18;17.40;99.90
35692;DHT22;26978;44.830;-0.674;2022-08-21T05:31:44;17.50;99.90
35692;DHT22;26978;44.830;-0.674;2022-08-21T05:34:11;17.50;99.90
35692;DHT22;26978;44.830;-0.674;2022-08-21T05:36:36;17.60;99.90
35692;DHT22;26978;44.830;-0.674;2022-08-21T05:39:02;17.60;99.90
35692;DHT22;26978;44.830;-0.674;2022-08-21T05:41:27;17.70;99.90
35692;DHT22;26978;44.830;-0.674;2022-08-21T05:43:53;17.70;99.90
35692;DHT22;26978;44.830;-0.674;2022-08-21T05:46:18;17.70;99.90
35692;DHT22;26978;44.830;-0.674;2022-08-21T05:48:44;17.70;99.90
35692;DHT22;26978;44.830;-0.674;2022-08-21T05:51:11;17.80;99.90
35692;DHT22;26978;44.830;-0.674;2022-08-21T05:53:37;17.90;99.90
35692;DHT22;26978;44.830;-0.674;2022-08-21T05:56:03;17.90;99.90
35692;DHT22;26978;44.830;-0.674;2022-08-21T05:58:29;18.00;99.90
35692;DHT22;26978;44.830;-0.674;2022-08-21T06:00:55;18.00;99.90
35692;DHT22;26978;44.830;-0.674;2022-08-21T06:03:22;18.10;99.90
35692;DHT22;26978;44.830;-0.674;2022-08-21T06:05:48;18.10;99.90
35692;DHT22;26978;44.830;-0.674;2022-08-21T06:08:14;18.20;99.90
35692;DHT22;26978;44.830;-0.674;2022-08-21T06:10:40;18.30;99.90
35692;DHT22;26978;44.830;-0.674;2022-08-21T06:13:05;18.40;99.90
35692;DHT22;26978;44.830;-0.674;2022-08-21T06:15:31;18.50;99.90
35692;DHT22;26978;44.830;-0.674;2022-08-21T06:17:56;18.70;99.90
35692;DHT22;26978;44.830;-0.674;2022-08-21T06:20:22;18.80;99.90
35692;DHT22;26978;44.830;-0.674;2022-08-21T06:22:48;18.80;99.90
35692;DHT22;26978;44.830;-0.674;2022-08-21T06:25:14;19.00;99.90
35692;DHT22;26978;44.830;-0.674;2022-08-21T06:27:39;19.10;99.90
35692;DHT22;26978;44.830;-0.674;2022-08-21T06:30:05;19.10;99.90
35692;DHT22;26978;44.830;-0.674;2022-08-21T06:32:31;19.20;99.90
35692;DHT22;26978;44.830;-0.674;2022-08-21T06:34:56;19.30;99.90
35692;DHT22;26978;44.830;-0.674;2022-08-21T06:37:22;19.30;99.90
35692;DHT22;26978;44.830;-0.674;2022-08-21T06:39:47;19.30;99.90
35692;DHT22;26978;44.830;-0.674;2022-08-21T06:42:14;19.30;99.90
35692;DHT22;26978;44.830;-0.674;2022-08-21T06:44:40;19.20;99.90
35692;DHT22;26978;44.830;-0.674;2022-08-21T06:47:05;19.20;99.90
35692;DHT22;26978;44.830;-0.674;2022-08-21T06:49:31;19.20;99.90
35692;DHT22;26978;44.830;-0.674;2022-08-21T06:51:56;19.20;99.90
35692;DHT22;26978;44.830;-0.674;2022-08-21T06:54:22;19.20;99.90
35692;DHT22;26978;44.830;-0.674;2022-08-21T06:56:48;19.30;99.90
35692;DHT22;26978;44.830;-0.674;2022-08-21T06:59:13;19.40;99.90
35692;DHT22;26978;44.830;-0.674;2022-08-21T07:01:39;19.60;99.90
35692;DHT22;26978;44.830;-0.674;2022-08-21T07:04:04;19.60;99.90
35692;DHT22;26978;44.830;-0.674;2022-08-21T07:06:30;19.70;99.90
35692;DHT22;26978;44.830;-0.674;2022-08-21T07:08:55;19.80;99.90
35692;DHT22;26978;44.830;-0.674;2022-08-21T07:11:22;20.00;99.90
35692;DHT22;26978;44.830;-0.674;2022-08-21T07:13:48;20.10;99.90
35692;DHT22;26978;44.830;-0.674;2022-08-21T07:16:14;20.10;99.90
35692;DHT22;26978;44.830;-0.674;2022-08-21T07:18:39;20.20;99.90
35692;DHT22;26978;44.830;-0.674;2022-08-21T07:21:05;20.30;99.90
35692;DHT22;26978;44.830;-0.674;2022-08-21T07:23:33;20.50;99.90
35692;DHT22;26978;44.830;-0.674;2022-08-21T07:25:59;20.50;99.90
35692;DHT22;26978;44.830;-0.674;2022-08-21T07:28:26;20.60;99.90
35692;DHT22;26978;44.830;-0.674;2022-08-21T07:30:52;20.60;99.90
35692;DHT22;26978;44.830;-0.674;2022-08-21T07:33:18;20.60;99.90
35692;DHT22;26978;44.830;-0.674;2022-08-21T07:35:43;20.60;99.90
35692;DHT22;26978;44.830;-0.674;2022-08-21T07:38:09;20.80;99.90
35692;DHT22;26978;44.830;-0.674;2022-08-21T07:40:35;20.90;99.90
35692;DHT22;26978;44.830;-0.674;2022-08-21T07:43:00;20.90;99.90
35692;DHT22;26978;44.830;-0.674;2022-08-21T07:45:26;21.10;99.90
35692;DHT22;26978;44.830;-0.674;2022-08-21T07:47:51;21.20;99.90
35692;DHT22;26978;44.830;-0.674;2022-08-21T07:50:17;21.10;99.90
35692;DHT22;26978;44.830;-0.674;2022-08-21T07:52:43;21.10;99.90
35692;DHT22;26978;44.830;-0.674;2022-08-21T07:55:10;21.30;99.90
35692;DHT22;26978;44.830;-0.674;2022-08-21T07:57:36;21.40;99.90
35692;DHT22;26978;44.830;-0.674;2022-08-21T08:00:05;21.40;99.90
35692;DHT22;26978;44.830;-0.674;2022-08-21T08:02:32;21.50;99.90
35692;DHT22;26978;44.830;-0.674;2022-08-21T08:05:00;21.60;99.90
35692;DHT22;26978;44.830;-0.674;2022-08-21T08:07:26;21.80;99.90
35692;DHT22;26978;44.830;-0.674;2022-08-21T08:09:52;21.90;99.90
35692;DHT22;26978;44.830;-0.674;2022-08-21T08:12:18;22.00;99.90
35692;DHT22;26978;44.830;-0.674;2022-08-21T08:14:43;22.00;99.90
35692;DHT22;26978;44.830;-0.674;2022-08-21T08:17:09;21.90;99.90
35692;DHT22;26978;44.830;-0.674;2022-08-21T08:19:34;21.90;99.90
35692;DHT22;26978;44.830;-0.674;2022-08-21T08:22:00;22.00;99.90
35692;DHT22;26978;44.830;-0.674;2022-08-21T08:24:26;22.30;99.90
35692;DHT22;26978;44.830;-0.674;2022-08-21T08:26:51;22.20;99.90
35692;DHT22;26978;44.830;-0.674;2022-08-21T08:29:19;22.30;99.90
35692;DHT22;26978;44.830;-0.674;2022-08-21T08:31:45;22.30;99.90
35692;DHT22;26978;44.830;-0.674;2022-08-21T08:34:10;22.40;99.90
35692;DHT22;26978;44.830;-0.674;2022-08-21T08:36:36;22.50;99.90
35692;DHT22;26978;44.830;-0.674;2022-08-21T08:39:02;22.30;99.90
35692;DHT22;26978;44.830;-0.674;2022-08-21T08:41:28;22.30;99.90
35692;DHT22;26978;44.830;-0.674;2022-08-21T08:43:56;22.50;99.90
35692;DHT22;26978;44.830;-0.674;2022-08-21T08:54:21;22.90;99.90
35692;DHT22;26978;44.830;-0.674;2022-08-21T08:56:51;23.20;99.90
35692;DHT22;26978;44.830;-0.674;2022-08-21T08:59:18;23.20;99.90
35692;DHT22;26978;44.830;-0.674;2022-08-21T09:01:45;23.30;99.90
35692;DHT22;26978;44.830;-0.674;2022-08-21T09:04:11;23.10;99.90
35692;DHT22;26978;44.830;-0.674;2022-08-21T09:06:53;23.20;99.90
35692;DHT22;26978;44.830;-0.674;2022-08-21T09:12:16;23.10;99.90
35692;DHT22;26978;44.830;-0.674;2022-08-21T09:14:58;23.10;99.90
35692;DHT22;26978;44.830;-0.674;2022-08-21T09:17:34;23.40;99.90
35692;DHT22;26978;44.830;-0.674;2022-08-21T09:22:35;24.30;98.90
35692;DHT22;26978;44.830;-0.674;2022-08-21T09:27:33;24.30;97.40
35692;DHT22;26978;44.830;-0.674;2022-08-21T09:29:59;24.30;97.10
35692;DHT22;26978;44.830;-0.674;2022-08-21T09:32:26;23.90;97.10
35692;DHT22;26978;44.830;-0.674;2022-08-21T09:37:24;24.40;96.50
35692;DHT22;26978;44.830;-0.674;2022-08-21T09:39:50;24.70;96.30
35692;DHT22;26978;44.830;-0.674;2022-08-21T09:42:23;24.40;96.20
35692;DHT22;26978;44.830;-0.674;2022-08-21T09:45:00;24.20;96.60
35692;DHT22;26978;44.830;-0.674;2022-08-21T09:47:29;24.40;96.60
35692;DHT22;26978;44.830;-0.674;2022-08-21T09:49:55;24.30;96.60
35692;DHT22;26978;44.830;-0.674;2022-08-21T09:52:21;24.20;97.00
35692;DHT22;26978;44.830;-0.674;2022-08-21T09:54:50;24.10;97.20
35692;DHT22;26978;44.830;-0.674;2022-08-21T09:57:21;24.50;96.90
35692;DHT22;26978;44.830;-0.674;2022-08-21T10:00:07;24.40;96.70
35692;DHT22;26978;44.830;-0.674;2022-08-21T10:02:34;24.90;96.60
35692;DHT22;26978;44.830;-0.674;2022-08-21T10:05:01;24.70;96.40
35692;DHT22;26978;44.830;-0.674;2022-08-21T10:07:29;24.70;95.80
35692;DHT22;26978;44.830;-0.674;2022-08-21T10:10:03;24.90;96.00
35692;DHT22;26978;44.830;-0.674;2022-08-21T10:12:42;24.80;95.60
35692;DHT22;26978;44.830;-0.674;2022-08-21T10:15:15;24.70;95.90
35692;DHT22;26978;44.830;-0.674;2022-08-21T10:20:33;24.60;96.40
35692;DHT22;26978;44.830;-0.674;2022-08-21T10:25:52;24.70;96.40
35692;DHT22;26978;44.830;-0.674;2022-08-21T10:31:06;24.50;97.40
35692;DHT22;26978;44.830;-0.674;2022-08-21T10:36:51;25.00;96.50
35692;DHT22;26978;44.830;-0.674;2022-08-21T10:46:45;25.10;95.00
35692;DHT22;26978;44.830;-0.674;2022-08-21T10:54:35;25.10;94.50
35692;DHT22;26978;44.830;-0.674;2022-08-21T10:57:05;25.20;94.20
35692;DHT22;26978;44.830;-0.674;2022-08-21T10:59:34;25.20;93.60
35692;DHT22;26978;44.830;-0.674;2022-08-21T11:02:10;25.20;93.80
35692;DHT22;26978;44.830;-0.674;2022-08-21T11:04:38;24.80;95.20
35692;DHT22;26978;44.830;-0.674;2022-08-21T11:07:16;25.20;95.00
35692;DHT22;26978;44.830;-0.674;2022-08-21T11:09:43;25.30;93.90
35692;DHT22;26978;44.830;-0.674;2022-08-21T11:12:20;25.60;93.40
35692;DHT22;26978;44.830;-0.674;2022-08-21T11:17:30;25.40;93.00
35692;DHT22;26978;44.830;-0.674;2022-08-21T11:20:22;25.30;92.60
35692;DHT22;26978;44.830;-0.674;2022-08-21T11:22:46;25.20;92.30
35692;DHT22;26978;44.830;-0.674;2022-08-21T11:25:17;25.50;93.50
35692;DHT22;26978;44.830;-0.674;2022-08-21T11:27:47;25.30;91.90
35692;DHT22;26978;44.830;-0.674;2022-08-21T11:30:14;25.10;92.40
35692;DHT22;26978;44.830;-0.674;2022-08-21T11:38:09;24.90;93.10
35692;DHT22;26978;44.830;-0.674;2022-08-21T11:43:30;25.50;91.60
35692;DHT22;26978;44.830;-0.674;2022-08-21T11:51:21;25.70;91.10
35692;DHT22;26978;44.830;-0.674;2022-08-21T11:54:16;25.60;91.70
35692;DHT22;26978;44.830;-0.674;2022-08-21T11:56:36;26.30;90.30
35692;DHT22;26978;44.830;-0.674;2022-08-21T11:59:08;26.30;89.40
35692;DHT22;26978;44.830;-0.674;2022-08-21T12:01:39;26.40;88.80
35692;DHT22;26978;44.830;-0.674;2022-08-21T12:04:08;26.50;88.80
35692;DHT22;26978;44.830;-0.674;2022-08-21T12:06:36;26.70;87.10
35692;DHT22;26978;44.830;-0.674;2022-08-21T12:09:06;25.90;90.50
35692;DHT22;26978;44.830;-0.674;2022-08-21T12:11:32;26.30;90.00
35692;DHT22;26978;44.830;-0.674;2022-08-21T12:21:29;25.90;88.70
35692;DHT22;26978;44.830;-0.674;2022-08-21T12:24:15;26.70;88.60
35692;DHT22;26978;44.830;-0.674;2022-08-21T12:26:57;27.30;84.80
35692;DHT22;26978;44.830;-0.674;2022-08-21T12:29:26;26.70;85.90
35692;DHT22;26978;44.830;-0.674;2022-08-21T12:34:18;27.30;83.30
35692;DHT22;26978;44.830;-0.674;2022-08-21T12:39:34;26.80;84.80
35692;DHT22;26978;44.830;-0.674;2022-08-21T12:42:06;26.90;86.30
35692;DHT22;26978;44.830;-0.674;2022-08-21T12:44:38;26.50;84.80
35692;DHT22;26978;44.830;-0.674;2022-08-21T12:47:05;25.90;87.90
35692;DHT22;26978;44.830;-0.674;2022-08-21T12:49:33;26.10;88.80
35692;DHT22;26978;44.830;-0.674;2022-08-21T12:52:01;26.20;87.20
35692;DHT22;26978;44.830;-0.674;2022-08-21T12:54:29;26.60;85.90
35692;DHT22;26978;44.830;-0.674;2022-08-21T12:57:00;27.10;85.70
35692;DHT22;26978;44.830;-0.674;2022-08-21T12:59:26;27.00;84.00
35692;DHT22;26978;44.830;-0.674;2022-08-21T13:01:52;27.50;84.10
35692;DHT22;26978;44.830;-0.674;2022-08-21T13:04:25;27.20;83.80
35692;DHT22;26978;44.830;-0.674;2022-08-21T13:06:53;26.30;86.10
35692;DHT22;26978;44.830;-0.674;2022-08-21T13:09:20;27.00;84.90
35692;DHT22;26978;44.830;-0.674;2022-08-21T13:11:49;27.90;82.10
35692;DHT22;26978;44.830;-0.674;2022-08-21T13:14:31;27.70;82.00
35692;DHT22;26978;44.830;-0.674;2022-08-21T13:16:59;28.00;81.10
35692;DHT22;26978;44.830;-0.674;2022-08-21T13:19:25;28.00;80.90
35692;DHT22;26978;44.830;-0.674;2022-08-21T13:21:51;27.60;82.20
35692;DHT22;26978;44.830;-0.674;2022-08-21T13:24:19;28.20;81.20
35692;DHT22;26978;44.830;-0.674;2022-08-21T13:26:45;28.80;78.40
35692;DHT22;26978;44.830;-0.674;2022-08-21T13:29:12;28.90;78.60
35692;DHT22;26978;44.830;-0.674;2022-08-21T13:31:39;28.60;79.20
35692;DHT22;26978;44.830;-0.674;2022-08-21T13:34:06;28.70;80.30
35692;DHT22;26978;44.830;-0.674;2022-08-21T13:36:35;29.10;78.20
35692;DHT22;26978;44.830;-0.674;2022-08-21T13:39:02;30.20;77.20
35692;DHT22;26978;44.830;-0.674;2022-08-21T13:41:29;30.00;74.00
35692;DHT22;26978;44.830;-0.674;2022-08-21T13:44:03;29.80;74.30
35692;DHT22;26978;44.830;-0.674;2022-08-21T13:46:31;30.00;74.40
35692;DHT22;26978;44.830;-0.674;2022-08-21T13:48:58;30.50;73.40
35692;DHT22;26978;44.830;-0.674;2022-08-21T13:51:24;30.20;72.90
35692;DHT22;26978;44.830;-0.674;2022-08-21T13:53:50;29.70;73.80
35692;DHT22;26978;44.830;-0.674;2022-08-21T13:56:32;29.90;75.80
35692;DHT22;26978;44.830;-0.674;2022-08-21T13:58:58;30.30;73.40
35692;DHT22;26978;44.830;-0.674;2022-08-21T14:01:28;30.10;71.60
35692;DHT22;26978;44.830;-0.674;2022-08-21T14:03:56;29.30;73.80
35692;DHT22;26978;44.830;-0.674;2022-08-21T14:06:26;28.40;73.80
35692;DHT22;26978;44.830;-0.674;2022-08-21T14:08:56;27.60;77.40
35692;DHT22;26978;44.830;-0.674;2022-08-21T14:11:23;28.00;79.00
35692;DHT22;26978;44.830;-0.674;2022-08-21T14:13:51;28.40;75.80
35692;DHT22;26978;44.830;-0.674;2022-08-21T14:16:22;28.20;74.70
35692;DHT22;26978;44.830;-0.674;2022-08-21T14:18:55;29.40;72.10
35692;DHT22;26978;44.830;-0.674;2022-08-21T14:21:36;29.70;71.10
35692;DHT22;26978;44.830;-0.674;2022-08-21T14:24:12;29.80;72.90
35692;DHT22;26978;44.830;-0.674;2022-08-21T14:26:46;29.40;72.20
35692;DHT22;26978;44.830;-0.674;2022-08-21T14:29:13;29.80;71.00
35692;DHT22;26978;44.830;-0.674;2022-08-21T14:31:40;30.00;70.60
35692;DHT22;26978;44.830;-0.674;2022-08-21T14:34:08;29.80;72.30
35692;DHT22;26978;44.830;-0.674;2022-08-21T14:36:34;30.60;68.00
35692;DHT22;26978;44.830;-0.674;2022-08-21T14:39:00;31.70;64.90
35692;DHT22;26978;44.830;-0.674;2022-08-21T14:41:26;33.00;62.90
35692;DHT22;26978;44.830;-0.674;2022-08-21T14:43:54;32.60;58.90
35692;DHT22;26978;44.830;-0.674;2022-08-21T14:46:22;31.30;61.70
35692;DHT22;26978;44.830;-0.674;2022-08-21T14:48:48;30.10;66.30
35692;DHT22;26978;44.830;-0.674;2022-08-21T14:51:14;31.00;61.50
35692;DHT22;26978;44.830;-0.674;2022-08-21T14:53:40;32.70;57.60
35692;DHT22;26978;44.830;-0.674;2022-08-21T14:56:05;31.80;60.90
35692;DHT22;26978;44.830;-0.674;2022-08-21T14:58:39;31.50;59.60
35692;DHT22;26978;44.830;-0.674;2022-08-21T15:01:06;31.70;61.50
35692;DHT22;26978;44.830;-0.674;2022-08-21T15:03:32;30.30;63.50
35692;DHT22;26978;44.830;-0.674;2022-08-21T15:05:58;29.20;66.70
35692;DHT22;26978;44.830;-0.674;2022-08-21T15:08:24;28.90;69.30
35692;DHT22;26978;44.830;-0.674;2022-08-21T15:10:50;29.50;66.70
35692;DHT22;26978;44.830;-0.674;2022-08-21T15:13:16;29.00;67.90
35692;DHT22;26978;44.830;-0.674;2022-08-21T15:15:43;29.10;67.70
35692;DHT22;26978;44.830;-0.674;2022-08-21T15:18:09;29.40;68.20
35692;DHT22;26978;44.830;-0.674;2022-08-21T15:20:35;30.10;64.10
35692;DHT22;26978;44.830;-0.674;2022-08-21T15:23:01;30.30;61.90
35692;DHT22;26978;44.830;-0.674;2022-08-21T15:25:27;30.40;63.20
35692;DHT22;26978;44.830;-0.674;2022-08-21T15:27:52;30.30;64.10
35692;DHT22;26978;44.830;-0.674;2022-08-21T15:30:18;30.40;63.30
35692;DHT22;26978;44.830;-0.674;2022-08-21T15:32:43;29.80;65.50
35692;DHT22;26978;44.830;-0.674;2022-08-21T15:35:09;28.70;69.30
35692;DHT22;26978;44.830;-0.674;2022-08-21T15:37:35;28.50;71.20
35692;DHT22;26978;44.830;-0.674;2022-08-21T15:40:01;28.70;71.60
35692;DHT22;26978;44.830;-0.674;2022-08-21T15:42:26;30.20;67.90
35692;DHT22;26978;44.830;-0.674;2022-08-21T15:44:52;29.20;69.40
35692;DHT22;26978;44.830;-0.674;2022-08-21T15:47:20;28.30;72.30
35692;DHT22;26978;44.830;-0.674;2022-08-21T15:49:46;28.30;72.40
35692;DHT22;26978;44.830;-0.674;2022-08-21T15:52:12;30.30;68.80
35692;DHT22;26978;44.830;-0.674;2022-08-21T15:54:38;31.60;64.90
35692;DHT22;26978;44.830;-0.674;2022-08-21T15:57:03;32.40;63.80
35692;DHT22;26978;44.830;-0.674;2022-08-21T15:59:29;32.60;62.60
35692;DHT22;26978;44.830;-0.674;2022-08-21T16:01:57;32.70;62.20
35692;DHT22;26978;44.830;-0.674;2022-08-21T16:04:24;32.70;61.40
35692;DHT22;26978;44.830;-0.674;2022-08-21T16:06:49;32.30;62.70
35692;DHT22;26978;44.830;-0.674;2022-08-21T16:09:15;31.80;64.70
35692;DHT22;26978;44.830;-0.674;2022-08-21T16:11:41;30.20;69.60
35692;DHT22;26978;44.830;-0.674;2022-08-21T16:14:07;29.70;71.90
35692;DHT22;26978;44.830;-0.674;2022-08-21T16:16:33;30.00;72.10
35692;DHT22;26978;44.830;-0.674;2022-08-21T16:18:59;30.20;72.20
35692;DHT22;26978;44.830;-0.674;2022-08-21T16:21:25;30.10;72.10
35692;DHT22;26978;44.830;-0.674;2022-08-21T16:23:50;30.90;71.20
35692;DHT22;26978;44.830;-0.674;2022-08-21T16:26:16;31.20;69.10